sensor_id;sensor_type;location;lat;lon;timestamp;temperature;humidity
54518;DHT22;40423;53.176;6.002;2023-01-09T00:00:42;7.40;99.90
54518;DHT22;40423;53.176;6.002;2023-01-09T00:03:08;7.40;99.90
54518;DHT22;40423;53.176;6.002;2023-01-09T00:05:34;7.40;99.90
54518;DHT22;40423;53.176;6.002;2023-01-09T00:08:02;7.40;99.90
54518;DHT22;40423;53.176;6.002;2023-01-09T00:10:28;7.40;99.90
54518;DHT22;40423;53.176;6.002;2023-01-09T00:12:54;7.40;99.90
54518;DHT22;40423;53.176;6.002;2023-01-09T00:15:20;7.40;99.90
54518;DHT22;40423;53.176;6.002;2023-01-09T00:17:45;7.40;99.90
54518;DHT22;40423;53.176;6.002;2023-01-09T00:20:13;7.40;99.90
54518;DHT22;40423;53.176;6.002;2023-01-09T00:22:41;7.40;99.90
54518;DHT22;40423;53.176;6.002;2023-01-09T00:25:07;7.40;99.90
54518;DHT22;40423;53.176;6.002;2023-01-09T00:27:34;7.40;99.90
54518;DHT22;40423;53.176;6.002;2023-01-09T00:30:01;7.40;99.90
54518;DHT22;40423;53.176;6.002;2023-01-09T00:32:27;7.40;99.90
54518;DHT22;40423;53.176;6.002;2023-01-09T00:34:54;7.40;99.90
54518;DHT22;40423;53.176;6.002;2023-01-09T00:37:20;7.40;99.90
54518;DHT22;40423;53.176;6.002;2023-01-09T00:39:46;7.40;99.90
54518;DHT22;40423;53.176;6.002;2023-01-09T00:42:17;7.40;99.90
54518;DHT22;40423;53.176;6.002;2023-01-09T00:44:49;7.40;99.90
54518;DHT22;40423;53.176;6.002;2023-01-09T00:47:20;7.40;99.90
54518;DHT22;40423;53.176;6.002;2023-01-09T00:49:50;7.50;99.90
54518;DHT22;40423;53.176;6.002;2023-01-09T00:52:17;7.40;99.90
54518;DHT22;40423;53.176;6.002;2023-01-09T00:54:44;7.40;99.90
54518;DHT22;40423;53.176;6.002;2023-01-09T00:57:11;7.40;99.90
54518;DHT22;40423;53.176;6.002;2023-01-09T00:59:38;7.50;99.90
54518;DHT22;40423;53.176;6.002;2023-01-09T01:02:05;7.50;99.90
54518;DHT22;40423;53.176;6.002;2023-01-09T01:04:30;7.50;99.90
54518;DHT22;40423;53.176;6.002;2023-01-09T01:07:14;7.50;99.90
54518;DHT22;40423;53.176;6.002;2023-01-09T01:09:59;7.50;99.90
54518;DHT22;40423;53.176;6.002;2023-01-09T01:12:25;7.50;99.90
54518;DHT22;40423;53.176;6.002;2023-01-09T01:14:51;7.40;99.90
54518;DHT22;40423;53.176;6.002;2023-01-09T01:17:17;7.50;99.90
54518;DHT22;40423;53.176;6.002;2023-01-09T01:19:43;7.50;99.90
54518;DHT22;40423;53.176;6.002;2023-01-09T01:22:09;7.50;99.90
54518;DHT22;40423;53.176;6.002;2023-01-09T01:24:38;7.50;99.90
54518;DHT22;40423;53.176;6.002;2023-01-09T01:29:39;7.50;99.90
54518;DHT22;40423;53.176;6.002;2023-01-09T01:32:05;7.50;99.90
54518;DHT22;40423;53.176;6.002;2023-01-09T01:34:32;7.60;99.90
54518;DHT22;40423;53.176;6.002;2023-01-09T01:36:58;7.60;99.90
54518;DHT22;40423;53.176;6.002;2023-01-09T01:39:24;7.50;99.90
54518;DHT22;40423;53.176;6.002;2023-01-09T01:41:49;7.50;99.90
54518;DHT22;40423;53.176;6.002;2023-01-09T01:47:19;7.50;99.90
54518;DHT22;40423;53.176;6.002;2023-01-09T01:49:46;7.50;99.90
54518;DHT22;40423;53.176;6.002;2023-01-09T01:52:15;7.50;99.90
54518;DHT22;40423;53.176;6.002;2023-01-09T01:54:43;7.50;99.90
54518;DHT22;40423;53.176;6.002;2023-01-09T01:57:10;7.50;99.90
54518;DHT22;40423;53.176;6.002;2023-01-09T01:59:50;7.50;99.90
54518;DHT22;40423;53.176;6.002;2023-01-09T02:02:21;7.40;99.90
54518;DHT22;40423;53.176;6.002;2023-01-09T02:04:50;7.40;99.90
54518;DHT22;40423;53.176;6.002;2023-01-09T02:07:16;7.40;99.90
54518;DHT22;40423;53.176;6.002;2023-01-09T02:09:45;7.30;99.90
54518;DHT22;40423;53.176;6.002;2023-01-09T02:12:20;7.30;99.90
54518;DHT22;40423;53.176;6.002;2023-01-09T02:14:56;7.30;99.90
54518;DHT22;40423;53.176;6.002;2023-01-09T02:31:48;7.10;99.90
54518;DHT22;40423;53.176;6.002;2023-01-09T02:43:01;6.90;99.90
54518;DHT22;40423;53.176;6.002;2023-01-09T02:45:27;6.90;99.90
54518;DHT22;40423;53.176;6.002;2023-01-09T02:47:53;6.90;99.90
54518;DHT22;40423;53.176;6.002;2023-01-09T02:50:22;6.80;99.90
54518;DHT22;40423;53.176;6.002;2023-01-09T02:55:37;6.80;99.90
54518;DHT22;40423;53.176;6.002;2023-01-09T03:03:39;6.70;99.90
54518;DHT22;40423;53.176;6.002;2023-01-09T03:06:17;6.60;99.90
54518;DHT22;40423;53.176;6.002;2023-01-09T03:08:57;6.60;99.90
54518;DHT22;40423;53.176;6.002;2023-01-09T03:11:27;6.60;99.90
54518;DHT22;40423;53.176;6.002;2023-01-09T03:13:58;6.50;99.90
54518;DHT22;40423;53.176;6.002;2023-01-09T03:16:32;6.50;99.90
54518;DHT22;40423;53.176;6.002;2023-01-09T03:19:00;6.50;99.90
54518;DHT22;40423;53.176;6.002;2023-01-09T03:21:26;6.40;99.90
54518;DHT22;40423;53.176;6.002;2023-01-09T03:23:54;6.40;99.90
54518;DHT22;40423;53.176;6.002;2023-01-09T03:26:20;6.40;99.90
54518;DHT22;40423;53.176;6.002;2023-01-09T03:28:47;6.30;99.90
54518;DHT22;40423;53.176;6.002;2023-01-09T03:31:13;6.30;99.90
54518;DHT22;40423;53.176;6.002;2023-01-09T03:33:39;6.30;99.90
54518;DHT22;40423;53.176;6.002;2023-01-09T03:36:05;6.30;99.90
54518;DHT22;40423;53.176;6.002;2023-01-09T03:38:32;6.20;99.90
54518;DHT22;40423;53.176;6.002;2023-01-09T03:40:58;6.20;99.90
54518;DHT22;40423;53.176;6.002;2023-01-09T03:43:26;6.20;99.90
54518;DHT22;40423;53.176;6.002;2023-01-09T03:45:52;6.20;99.90
54518;DHT22;40423;53.176;6.002;2023-01-09T03:48:18;6.20;99.90
54518;DHT22;40423;53.176;6.002;2023-01-09T03:50:43;6.20;99.90
54518;DHT22;40423;53.176;6.002;2023-01-09T03:53:14;6.20;99.90
54518;DHT22;40423;53.176;6.002;2023-01-09T03:55:45;6.20;99.90
54518;DHT22;40423;53.176;6.002;2023-01-09T03:58:11;6.20;99.90
54518;DHT22;40423;53.176;6.002;2023-01-09T04:00:37;6.20;99.90
54518;DHT22;40423;53.176;6.002;2023-01-09T04:03:08;6.20;99.90
54518;DHT22;40423;53.176;6.002;2023-01-09T04:05:34;6.10;99.90
54518;DHT22;40423;53.176;6.002;2023-01-09T04:08:04;6.10;99.90
54518;DHT22;40423;53.176;6.002;2023-01-09T04:10:29;6.10;99.90
54518;DHT22;40423;53.176;6.002;2023-01-09T04:12:55;6.20;99.90
54518;DHT22;40423;53.176;6.002;2023-01-09T04:15:24;6.20;99.90
54518;DHT22;40423;53.176;6.002;2023-01-09T04:17:50;6.20;99.90
54518;DHT22;40423;53.176;6.002;2023-01-09T04:20:16;6.20;99.90
54518;DHT22;40423;53.176;6.002;2023-01-09T04:22:43;6.20;99.90
54518;DHT22;40423;53.176;6.002;2023-01-09T04:25:09;6.20;99.90
54518;DHT22;40423;53.176;6.002;2023-01-09T04:27:34;6.20;99.90
54518;DHT22;40423;53.176;6.002;2023-01-09T04:30:00;6.20;99.90
54518;DHT22;40423;53.176;6.002;2023-01-09T04:32:26;6.20;99.90
54518;DHT22;40423;53.176;6.002;2023-01-09T04:34:53;6.20;99.90
54518;DHT22;40423;53.176;6.002;2023-01-09T04:37:22;6.20;99.90
54518;DHT22;40423;53.176;6.002;2023-01-09T04:39:48;6.20;99.90
54518;DHT22;40423;53.176;6.002;2023-01-09T04:42:14;6.10;99.90
54518;DHT22;40423;53.176;6.002;2023-01-09T04:44:40;6.10;99.90
54518;DHT22;40423;53.176;6.002;2023-01-09T04:47:06;6.10;99.90
54518;DHT22;40423;53.176;6.002;2023-01-09T04:49:31;6.10;99.90
54518;DHT22;40423;53.176;6.002;2023-01-09T04:51:57;6.10;99.90
54518;DHT22;40423;53.176;6.002;2023-01-09T04:54:23;6.10;99.90
54518;DHT22;40423;53.176;6.002;2023-01-09T04:56:49;6.00;99.90
54518;DHT22;40423;53.176;6.002;2023-01-09T04:59:15;6.00;99.90
54518;DHT22;40423;53.176;6.002;2023-01-09T05:01:41;6.00;99.90
54518;DHT22;40423;53.176;6.002;2023-01-09T05:04:06;6.00;99.90
54518;DHT22;40423;53.176;6.002;2023-01-09T05:06:32;6.00;99.90
54518;DHT22;40423;53.176;6.002;2023-01-09T05:08:59;5.90;99.90
54518;DHT22;40423;53.176;6.002;2023-01-09T05:11:25;5.90;99.90
54518;DHT22;40423;53.176;6.002;2023-01-09T05:13:51;5.90;99.90
54518;DHT22;40423;53.176;6.002;2023-01-09T05:16:20;5.90;99.90
54518;DHT22;40423;53.176;6.002;2023-01-09T05:18:46;5.90;99.90
54518;DHT22;40423;53.176;6.002;2023-01-09T05:21:12;5.90;99.90
54518;DHT22;40423;53.176;6.002;2023-01-09T05:23:38;5.90;99.90
54518;DHT22;40423;53.176;6.002;2023-01-09T05:26:04;5.90;99.90
54518;DHT22;40423;53.176;6.002;2023-01-09T05:28:33;5.80;99.90
54518;DHT22;40423;53.176;6.002;2023-01-09T05:30:58;5.90;99.90
54518;DHT22;40423;53.176;6.002;2023-01-09T05:33:24;5.90;99.90
54518;DHT22;40423;53.176;6.002;2023-01-09T05:35:50;5.90;99.90
54518;DHT22;40423;53.176;6.002;2023-01-09T05:38:15;5.90;99.90
54518;DHT22;40423;53.176;6.002;2023-01-09T05:40:41;5.90;99.90
54518;DHT22;40423;53.176;6.002;2023-01-09T05:43:07;5.90;99.90
54518;DHT22;40423;53.176;6.002;2023-01-09T05:45:33;5.90;99.90
54518;DHT22;40423;53.176;6.002;2023-01-09T05:47:59;5.90;99.90
54518;DHT22;40423;53.176;6.002;2023-01-09T05:50:25;5.90;99.90
54518;DHT22;40423;53.176;6.002;2023-01-09T05:52:50;5.90;99.90
54518;DHT22;40423;53.176;6.002;2023-01-09T05:55:16;5.90;99.90
54518;DHT22;40423;53.176;6.002;2023-01-09T05:57:45;5.90;99.90
54518;DHT22;40423;53.176;6.002;2023-01-09T06:00:11;5.90;99.90
54518;DHT22;40423;53.176;6.002;2023-01-09T06:02:37;5.90;99.90
54518;DHT22;40423;53.176;6.002;2023-01-09T06:05:03;5.90;99.90
54518;DHT22;40423;53.176;6.002;2023-01-09T06:07:29;6.00;99.90
54518;DHT22;40423;53.176;6.002;2023-01-09T06:09:54;5.90;99.90
54518;DHT22;40423;53.176;6.002;2023-01-09T06:12:20;6.00;99.90
54518;DHT22;40423;53.176;6.002;2023-01-09T06:14:46;6.00;99.90
54518;DHT22;40423;53.176;6.002;2023-01-09T06:17:12;6.00;99.90
54518;DHT22;40423;53.176;6.002;2023-01-09T06:19:37;6.00;99.90
54518;DHT22;40423;53.176;6.002;2023-01-09T06:22:03;6.10;99.90
54518;DHT22;40423;53.176;6.002;2023-01-09T06:24:29;6.10;99.90
54518;DHT22;40423;53.176;6.002;2023-01-09T06:26:55;6.10;99.90
54518;DHT22;40423;53.176;6.002;2023-01-09T06:29:24;6.10;99.90
54518;DHT22;40423;53.176;6.002;2023-01-09T06:31:49;6.10;99.90
54518;DHT22;40423;53.176;6.002;2023-01-09T06:34:15;6.10;99.90
54518;DHT22;40423;53.176;6.002;2023-01-09T06:36:40;6.10;99.90
54518;DHT22;40423;53.176;6.002;2023-01-09T06:39:06;6.10;99.90
54518;DHT22;40423;53.176;6.002;2023-01-09T06:41:32;6.10;99.90
54518;DHT22;40423;53.176;6.002;2023-01-09T06:43:58;6.10;99.90
54518;DHT22;40423;53.176;6.002;2023-01-09T06:46:23;6.10;99.90
54518;DHT22;40423;53.176;6.002;2023-01-09T06:48:49;6.10;99.90
54518;DHT22;40423;53.176;6.002;2023-01-09T06:51:15;6.10;99.90
54518;DHT22;40423;53.176;6.002;2023-01-09T06:53:40;6.10;99.90
54518;DHT22;40423;53.176;6.002;2023-01-09T06:56:06;6.10;99.90
54518;DHT22;40423;53.176;6.002;2023-01-09T06:58:32;6.10;99.90
54518;DHT22;40423;53.176;6.002;2023-01-09T07:00:58;6.10;99.90
54518;DHT22;40423;53.176;6.002;2023-01-09T07:03:24;6.10;99.90
54518;DHT22;40423;53.176;6.002;2023-01-09T07:05:50;6.10;99.90
54518;DHT22;40423;53.176;6.002;2023-01-09T07:08:16;6.10;99.90
54518;DHT22;40423;53.176;6.002;2023-01-09T07:10:42;6.10;99.90
54518;DHT22;40423;53.176;6.002;2023-01-09T07:13:08;6.10;99.90
54518;DHT22;40423;53.176;6.002;2023-01-09T07:15:35;6.10;99.90
54518;DHT22;40423;53.176;6.002;2023-01-09T07:18:04;6.10;99.90
54518;DHT22;40423;53.176;6.002;2023-01-09T07:20:30;6.10;99.90
54518;DHT22;40423;53.176;6.002;2023-01-09T07:22:56;6.10;99.90
54518;DHT22;40423;53.176;6.002;2023-01-09T07:25:22;6.00;99.90
54518;DHT22;40423;53.176;6.002;2023-01-09T07:27:47;6.00;99.90
54518;DHT22;40423;53.176;6.002;2023-01-09T07:30:13;6.00;99.90
54518;DHT22;40423;53.176;6.002;2023-01-09T07:32:39;5.90;99.90
54518;DHT22;40423;53.176;6.002;2023-01-09T07:35:09;5.90;99.90
54518;DHT22;40423;53.176;6.002;2023-01-09T07:37:34;5.90;99.90
54518;DHT22;40423;53.176;6.002;2023-01-09T07:40:00;5.90;99.90
54518;DHT22;40423;53.176;6.002;2023-01-09T07:42:29;5.90;99.90
54518;DHT22;40423;53.176;6.002;2023-01-09T07:44:55;5.90;99.90
54518;DHT22;40423;53.176;6.002;2023-01-09T07:47:20;5.90;99.90
54518;DHT22;40423;53.176;6.002;2023-01-09T07:49:46;5.90;99.90
54518;DHT22;40423;53.176;6.002;2023-01-09T07:52:12;5.90;99.90
54518;DHT22;40423;53.176;6.002;2023-01-09T07:54:38;5.90;99.90
54518;DHT22;40423;53.176;6.002;2023-01-09T07:57:03;5.90;99.90
54518;DHT22;40423;53.176;6.002;2023-01-09T07:59:29;5.90;99.90
54518;DHT22;40423;53.176;6.002;2023-01-09T08:01:55;6.10;99.90
54518;DHT22;40423;53.176;6.002;2023-01-09T08:04:21;5.90;99.90
54518;DHT22;40423;53.176;6.002;2023-01-09T08:06:47;5.90;99.90
54518;DHT22;40423;53.176;6.002;2023-01-09T08:09:12;5.90;99.90
54518;DHT22;40423;53.176;6.002;2023-01-09T08:11:42;6.00;99.90
54518;DHT22;40423;53.176;6.002;2023-01-09T08:14:08;6.00;99.90
54518;DHT22;40423;53.176;6.002;2023-01-09T08:16:33;6.00;99.90
54518;DHT22;40423;53.176;6.002;2023-01-09T08:18:59;6.00;99.90
54518;DHT22;40423;53.176;6.002;2023-01-09T08:21:25;6.00;99.90
54518;DHT22;40423;53.176;6.002;2023-01-09T08:23:51;6.00;99.90
54518;DHT22;40423;53.176;6.002;2023-01-09T08:26:16;6.10;99.90
54518;DHT22;40423;53.176;6.002;2023-01-09T08:28:48;6.10;99.90
54518;DHT22;40423;53.176;6.002;2023-01-09T08:31:14;6.10;99.90
54518;DHT22;40423;53.176;6.002;2023-01-09T08:33:40;6.10;99.90
54518;DHT22;40423;53.176;6.002;2023-01-09T08:36:06;6.10;99.90
54518;DHT22;40423;53.176;6.002;2023-01-09T08:38:35;6.10;99.90
54518;DHT22;40423;53.176;6.002;2023-01-09T08:41:01;6.10;99.90
54518;DHT22;40423;53.176;6.002;2023-01-09T08:43:46;6.20;99.90
54518;DHT22;40423;53.176;6.002;2023-01-09T08:46:30;6.20;99.90
54518;DHT22;40423;53.176;6.002;2023-01-09T08:49:15;6.20;99.90
54518;DHT22;40423;53.176;6.002;2023-01-09T08:51:40;6.20;99.90
54518;DHT22;40423;53.176;6.002;2023-01-09T08:54:06;6.20;99.90
54518;DHT22;40423;53.176;6.002;2023-01-09T08:56:32;6.20;99.90
54518;DHT22;40423;53.176;6.002;2023-01-09T08:58:57;6.30;99.90
54518;DHT22;40423;53.176;6.002;2023-01-09T09:01:23;6.30;99.90
54518;DHT22;40423;53.176;6.002;2023-01-09T09:03:49;6.30;99.90
54518;DHT22;40423;53.176;6.002;2023-01-09T09:06:14;6.30;99.90
54518;DHT22;40423;53.176;6.002;2023-01-09T09:08:40;6.30;99.90
54518;DHT22;40423;53.176;6.002;2023-01-09T09:11:08;6.30;99.90
54518;DHT22;40423;53.176;6.002;2023-01-09T09:13:34;6.40;99.90
54518;DHT22;40423;53.176;6.002;2023-01-09T09:16:03;6.40;99.90
54518;DHT22;40423;53.176;6.002;2023-01-09T09:18:28;6.40;99.90
54518;DHT22;40423;53.176;6.002;2023-01-09T09:20:54;6.40;99.90
54518;DHT22;40423;53.176;6.002;2023-01-09T09:23:20;6.40;99.90
54518;DHT22;40423;53.176;6.002;2023-01-09T09:25:47;6.40;99.90
54518;DHT22;40423;53.176;6.002;2023-01-09T09:28:13;6.40;99.90
54518;DHT22;40423;53.176;6.002;2023-01-09T09:30:39;6.50;99.90
54518;DHT22;40423;53.176;6.002;2023-01-09T09:33:04;6.50;99.90
54518;DHT22;40423;53.176;6.002;2023-01-09T09:35:31;6.50;99.90
54518;DHT22;40423;53.176;6.002;2023-01-09T09:38:00;6.50;99.90
54518;DHT22;40423;53.176;6.002;2023-01-09T09:47:10;6.50;99.90
54518;DHT22;40423;53.176;6.002;2023-01-09T09:49:47;6.60;99.90
54518;DHT22;40423;53.176;6.002;2023-01-09T09:55:23;6.60;99.90
54518;DHT22;40423;53.176;6.002;2023-01-09T09:57:51;6.60;99.90
54518;DHT22;40423;53.176;6.002;2023-01-09T10:00:22;6.70;99.90
54518;DHT22;40423;53.176;6.002;2023-01-09T10:02:56;6.70;99.90
54518;DHT22;40423;53.176;6.002;2023-01-09T10:05:31;6.70;99.90
54518;DHT22;40423;53.176;6.002;2023-01-09T10:08:06;6.80;99.90
54518;DHT22;40423;53.176;6.002;2023-01-09T10:10:45;6.80;99.90
54518;DHT22;40423;53.176;6.002;2023-01-09T10:13:16;6.90;99.90
54518;DHT22;40423;53.176;6.002;2023-01-09T10:21:28;7.00;99.90
54518;DHT22;40423;53.176;6.002;2023-01-09T10:26:47;7.10;99.90
54518;DHT22;40423;53.176;6.002;2023-01-09T10:37:36;7.20;99.90
54518;DHT22;40423;53.176;6.002;2023-01-09T10:42:50;7.20;99.90
54518;DHT22;40423;53.176;6.002;2023-01-09T10:45:37;7.20;99.90
54518;DHT22;40423;53.176;6.002;2023-01-09T10:48:27;7.20;99.90
54518;DHT22;40423;53.176;6.002;2023-01-09T10:50:55;7.20;99.90
54518;DHT22;40423;53.176;6.002;2023-01-09T10:53:42;7.20;99.90
54518;DHT22;40423;53.176;6.002;2023-01-09T10:56:38;7.20;99.90
54518;DHT22;40423;53.176;6.002;2023-01-09T10:59:08;7.20;99.90
54518;DHT22;40423;53.176;6.002;2023-01-09T11:01:37;7.20;99.90
54518;DHT22;40423;53.176;6.002;2023-01-09T11:04:31;7.20;99.90
54518;DHT22;40423;53.176;6.002;2023-01-09T11:07:11;7.20;99.90
54518;DHT22;40423;53.176;6.002;2023-01-09T11:12:30;7.20;99.90
54518;DHT22;40423;53.176;6.002;2023-01-09T11:17:45;7.20;99.90
54518;DHT22;40423;53.176;6.002;2023-01-09T11:22:49;7.30;99.90
54518;DHT22;40423;53.176;6.002;2023-01-09T11:25:20;7.30;99.90
54518;DHT22;40423;53.176;6.002;2023-01-09T11:30:29;7.30;99.90
54518;DHT22;40423;53.176;6.002;2023-01-09T11:32:56;7.30;99.90
54518;DHT22;40423;53.176;6.002;2023-01-09T11:35:28;7.30;99.90
54518;DHT22;40423;53.176;6.002;2023-01-09T11:38:06;7.40;99.90
54518;DHT22;40423;53.176;6.002;2023-01-09T11:41:00;7.40;99.90
54518;DHT22;40423;53.176;6.002;2023-01-09T11:46:02;7.40;99.90
54518;DHT22;40423;53.176;6.002;2023-01-09T11:48:32;7.40;99.90
54518;DHT22;40423;53.176;6.002;2023-01-09T11:51:00;7.40;99.90
54518;DHT22;40423;53.176;6.002;2023-01-09T11:53:26;7.40;99.90
54518;DHT22;40423;53.176;6.002;2023-01-09T11:56:01;7.40;99.90
54518;DHT22;40423;53.176;6.002;2023-01-09T11:58:33;7.40;99.90
54518;DHT22;40423;53.176;6.002;2023-01-09T12:01:36;7.40;99.90
54518;DHT22;40423;53.176;6.002;2023-01-09T12:13:08;7.40;99.90
54518;DHT22;40423;53.176;6.002;2023-01-09T12:18:51;7.50;99.90
54518;DHT22;40423;53.176;6.002;2023-01-09T12:21:27;7.50;99.90
54518;DHT22;40423;53.176;6.002;2023-01-09T12:30:16;7.60;99.90
54518;DHT22;40423;53.176;6.002;2023-01-09T12:38:17;7.70;99.90
54518;DHT22;40423;53.176;6.002;2023-01-09T12:47:46;7.90;99.90
54518;DHT22;40423;53.176;6.002;2023-01-09T12:50:28;8.20;99.90
54518;DHT22;40423;53.176;6.002;2023-01-09T12:56:29;7.90;99.90
54518;DHT22;40423;53.176;6.002;2023-01-09T13:01:16;7.90;99.90
54518;DHT22;40423;53.176;6.002;2023-01-09T13:04:21;7.90;99.90
54518;DHT22;40423;53.176;6.002;2023-01-09T13:06:53;7.90;99.90
54518;DHT22;40423;53.176;6.002;2023-01-09T13:14:50;8.00;99.90
54518;DHT22;40423;53.176;6.002;2023-01-09T13:19:56;8.10;99.90
54518;DHT22;40423;53.176;6.002;2023-01-09T13:22:24;8.10;99.90
54518;DHT22;40423;53.176;6.002;2023-01-09T13:27:36;8.20;99.90
54518;DHT22;40423;53.176;6.002;2023-01-09T13:30:14;8.20;99.90
54518;DHT22;40423;53.176;6.002;2023-01-09T13:32:59;8.20;99.90
54518;DHT22;40423;53.176;6.002;2023-01-09T13:35:27;8.30;99.90
54518;DHT22;40423;53.176;6.002;2023-01-09T13:37:55;8.30;99.90
54518;DHT22;40423;53.176;6.002;2023-01-09T13:40:25;8.30;99.90
54518;DHT22;40423;53.176;6.002;2023-01-09T13:43:07;8.40;99.90
54518;DHT22;40423;53.176;6.002;2023-01-09T13:45:36;8.40;99.90
54518;DHT22;40423;53.176;6.002;2023-01-09T13:50:36;8.40;99.90
54518;DHT22;40423;53.176;6.002;2023-01-09T13:58:55;8.60;99.90
54518;DHT22;40423;53.176;6.002;2023-01-09T14:06:38;8.60;99.90
54518;DHT22;40423;53.176;6.002;2023-01-09T14:09:19;8.60;99.90
54518;DHT22;40423;53.176;6.002;2023-01-09T14:12:02;8.60;99.90
54518;DHT22;40423;53.176;6.002;2023-01-09T14:14:33;8.60;99.90
54518;DHT22;40423;53.176;6.002;2023-01-09T14:17:15;8.60;99.90
54518;DHT22;40423;53.176;6.002;2023-01-09T14:19:41;8.60;99.90
54518;DHT22;40423;53.176;6.002;2023-01-09T14:22:28;8.50;99.90
54518;DHT22;40423;53.176;6.002;2023-01-09T14:25:00;8.50;99.90
54518;DHT22;40423;53.176;6.002;2023-01-09T14:28:46;8.50;99.90
54518;DHT22;40423;53.176;6.002;2023-01-09T14:41:23;8.40;99.90
54518;DHT22;40423;53.176;6.002;2023-01-09T14:49:56;8.30;99.90
54518;DHT22;40423;53.176;6.002;2023-01-09T14:52:33;8.30;99.90
54518;DHT22;40423;53.176;6.002;2023-01-09T14:55:02;8.30;99.90
54518;DHT22;40423;53.176;6.002;2023-01-09T14:57:30;8.20;99.90
54518;DHT22;40423;53.176;6.002;2023-01-09T15:00:01;8.20;99.90
54518;DHT22;40423;53.176;6.002;2023-01-09T15:02:33;8.20;99.90
54518;DHT22;40423;53.176;6.002;2023-01-09T15:05:20;8.20;99.90
54518;DHT22;40423;53.176;6.002;2023-01-09T15:07:54;8.10;99.90
54518;DHT22;40423;53.176;6.002;2023-01-09T15:10:44;8.10;99.90
54518;DHT22;40423;53.176;6.002;2023-01-09T15:13:16;8.10;99.90
54518;DHT22;40423;53.176;6.002;2023-01-09T15:15:44;8.10;99.90
54518;DHT22;40423;53.176;6.002;2023-01-09T15:18:19;8.00;99.90
54518;DHT22;40423;53.176;6.002;2023-01-09T15:20:45;8.00;99.90
54518;DHT22;40423;53.176;6.002;2023-01-09T15:23:26;8.00;99.90
54518;DHT22;40423;53.176;6.002;2023-01-09T15:25:56;8.10;99.90
54518;DHT22;40423;53.176;6.002;2023-01-09T15:28:42;8.00;99.90
54518;DHT22;40423;53.176;6.002;2023-01-09T15:31:21;8.00;99.90
54518;DHT22;40423;53.176;6.002;2023-01-09T15:33:47;8.00;99.90
54518;DHT22;40423;53.176;6.002;2023-01-09T15:38:46;8.00;99.90
54518;DHT22;40423;53.176;6.002;2023-01-09T15:41:17;7.90;99.90
54518;DHT22;40423;53.176;6.002;2023-01-09T15:44:05;7.90;99.90
54518;DHT22;40423;53.176;6.002;2023-01-09T15:46:34;7.90;99.90
54518;DHT22;40423;53.176;6.002;2023-01-09T15:49:00;7.90;99.90
54518;DHT22;40423;53.176;6.002;2023-01-09T15:51:26;7.90;99.90
54518;DHT22;40423;53.176;6.002;2023-01-09T15:53:52;7.90;99.90
54518;DHT22;40423;53.176;6.002;2023-01-09T15:56:26;7.80;99.90
54518;DHT22;40423;53.176;6.002;2023-01-09T15:58:59;7.80;99.90
54518;DHT22;40423;53.176;6.002;2023-01-09T16:01:31;7.80;99.90
54518;DHT22;40423;53.176;6.002;2023-01-09T16:04:15;7.80;99.90
54518;DHT22;40423;53.176;6.002;2023-01-09T16:06:49;7.80;99.90
54518;DHT22;40423;53.176;6.002;2023-01-09T16:09:28;7.70;99.90
54518;DHT22;40423;53.176;6.002;2023-01-09T16:11:58;7.70;99.90
54518;DHT22;40423;53.176;6.002;2023-01-09T16:14:37;7.60;99.90
54518;DHT22;40423;53.176;6.002;2023-01-09T16:17:14;7.60;99.90
54518;DHT22;40423;53.176;6.002;2023-01-09T16:19:47;7.50;99.90
54518;DHT22;40423;53.176;6.002;2023-01-09T16:24:49;7.60;99.90
54518;DHT22;40423;53.176;6.002;2023-01-09T16:27:25;7.50;99.90
54518;DHT22;40423;53.176;6.002;2023-01-09T16:30:02;7.50;99.90
54518;DHT22;40423;53.176;6.002;2023-01-09T16:32:34;7.50;99.90
54518;DHT22;40423;53.176;6.002;2023-01-09T16:35:06;7.50;99.90
54518;DHT22;40423;53.176;6.002;2023-01-09T16:37:33;7.50;99.90
54518;DHT22;40423;53.176;6.002;2023-01-09T16:42:34;7.50;99.90
54518;DHT22;40423;53.176;6.002;2023-01-09T16:45:19;7.40;99.90
54518;DHT22;40423;53.176;6.002;2023-01-09T16:47:45;7.40;99.90
54518;DHT22;40423;53.176;6.002;2023-01-09T16:50:12;7.40;99.90
54518;DHT22;40423;53.176;6.002;2023-01-09T16:52:38;7.40;99.90
54518;DHT22;40423;53.176;6.002;2023-01-09T16:55:04;7.30;99.90
54518;DHT22;40423;53.176;6.002;2023-01-09T16:57:33;7.30;99.90
54518;DHT22;40423;53.176;6.002;2023-01-09T17:00:00;7.30;99.90
54518;DHT22;40423;53.176;6.002;2023-01-09T17:02:26;7.30;99.90
54518;DHT22;40423;53.176;6.002;2023-01-09T17:04:52;7.20;99.90
54518;DHT22;40423;53.176;6.002;2023-01-09T17:07:21;7.20;99.90
54518;DHT22;40423;53.176;6.002;2023-01-09T17:09:50;7.20;99.90
54518;DHT22;40423;53.176;6.002;2023-01-09T17:12:22;7.10;99.90
54518;DHT22;40423;53.176;6.002;2023-01-09T17:14:53;7.10;99.90
54518;DHT22;40423;53.176;6.002;2023-01-09T17:17:19;7.10;99.90
54518;DHT22;40423;53.176;6.002;2023-01-09T17:19:45;7.00;99.90
54518;DHT22;40423;53.176;6.002;2023-01-09T17:22:14;7.00;99.90
54518;DHT22;40423;53.176;6.002;2023-01-09T17:24:40;7.00;99.90
54518;DHT22;40423;53.176;6.002;2023-01-09T17:27:29;6.90;99.90
54518;DHT22;40423;53.176;6.002;2023-01-09T17:30:14;6.90;99.90
54518;DHT22;40423;53.176;6.002;2023-01-09T17:32:40;6.90;99.90
54518;DHT22;40423;53.176;6.002;2023-01-09T17:35:06;6.90;99.90
54518;DHT22;40423;53.176;6.002;2023-01-09T17:37:32;6.90;99.90
54518;DHT22;40423;53.176;6.002;2023-01-09T17:39:58;6.90;99.90
54518;DHT22;40423;53.176;6.002;2023-01-09T17:42:28;6.90;99.90
54518;DHT22;40423;53.176;6.002;2023-01-09T17:44:54;6.90;99.90
54518;DHT22;40423;53.176;6.002;2023-01-09T17:47:24;6.90;99.90
54518;DHT22;40423;53.176;6.002;2023-01-09T17:49:50;6.90;99.90
54518;DHT22;40423;53.176;6.002;2023-01-09T17:52:15;6.90;99.90
54518;DHT22;40423;53.176;6.002;2023-01-09T17:54:46;6.90;99.90
54518;DHT22;40423;53.176;6.002;2023-01-09T17:57:18;6.80;99.90
54518;DHT22;40423;53.176;6.002;2023-01-09T17:59:43;6.80;99.90
54518;DHT22;40423;53.176;6.002;2023-01-09T18:02:18;6.80;99.90
54518;DHT22;40423;53.176;6.002;2023-01-09T18:04:44;6.80;99.90
54518;DHT22;40423;53.176;6.002;2023-01-09T18:07:13;6.80;99.90
54518;DHT22;40423;53.176;6.002;2023-01-09T18:09:40;6.70;99.90
54518;DHT22;40423;53.176;6.002;2023-01-09T18:12:06;6.70;99.90
54518;DHT22;40423;53.176;6.002;2023-01-09T18:14:32;6.70;99.90
54518;DHT22;40423;53.176;6.002;2023-01-09T18:16:57;6.70;99.90
54518;DHT22;40423;53.176;6.002;2023-01-09T18:19:23;6.70;99.90
54518;DHT22;40423;53.176;6.002;2023-01-09T18:21:49;6.60;99.90
54518;DHT22;40423;53.176;6.002;2023-01-09T18:24:15;6.60;99.90
54518;DHT22;40423;53.176;6.002;2023-01-09T18:26:41;6.60;99.90
54518;DHT22;40423;53.176;6.002;2023-01-09T18:29:10;6.60;99.90
54518;DHT22;40423;53.176;6.002;2023-01-09T18:31:38;6.60;99.90
54518;DHT22;40423;53.176;6.002;2023-01-09T18:34:04;6.60;99.90
54518;DHT22;40423;53.176;6.002;2023-01-09T18:36:32;6.60;99.90
54518;DHT22;40423;53.176;6.002;2023-01-09T18:38:59;6.60;99.90
54518;DHT22;40423;53.176;6.002;2023-01-09T18:41:29;6.50;99.90
54518;DHT22;40423;53.176;6.002;2023-01-09T18:43:57;6.50;99.90